sensor_id;sensor_type;location;lat;lon;timestamp;P1;durP1;ratioP1;P2;durP2;ratioP2
7231;SDS011;3657;49.630;11.018;2022-07-22T00:01:15;13.83;;;13.03;;
7231;SDS011;3657;49.630;11.018;2022-07-22T00:03:42;13.67;;;13.17;;
7231;SDS011;3657;49.630;11.018;2022-07-22T00:06:10;12.83;;;12.33;;
7231;SDS011;3657;49.630;11.018;2022-07-22T00:08:37;13.13;;;12.63;;
7231;SDS011;3657;49.630;11.018;2022-07-22T00:11:04;13.27;;;12.77;;
7231;SDS011;3657;49.630;11.018;2022-07-22T00:13:31;13.77;;;13.27;;
7231;SDS011;3657;49.630;11.018;2022-07-22T00:15:58;13.63;;;13.13;;
7231;SDS011;3657;49.630;11.018;2022-07-22T00:18:25;13.23;;;12.83;;
7231;SDS011;3657;49.630;11.018;2022-07-22T00:20:52;13.70;;;13.10;;
7231;SDS011;3657;49.630;11.018;2022-07-22T00:23:20;14.70;;;14.10;;
7231;SDS011;3657;49.630;11.018;2022-07-22T00:25:46;14.53;;;13.70;;
7231;SDS011;3657;49.630;11.018;2022-07-22T00:28:13;14.80;;;14.20;;
7231;SDS011;3657;49.630;11.018;2022-07-22T00:30:40;15.13;;;14.57;;
7231;SDS011;3657;49.630;11.018;2022-07-22T00:33:07;14.97;;;14.37;;
7231;SDS011;3657;49.630;11.018;2022-07-22T00:35:33;14.80;;;14.20;;
7231;SDS011;3657;49.630;11.018;2022-07-22T00:38:00;14.27;;;13.70;;
7231;SDS011;3657;49.630;11.018;2022-07-22T00:40:28;14.00;;;13.50;;
7231;SDS011;3657;49.630;11.018;2022-07-22T00:42:55;14.40;;;13.90;;
7231;SDS011;3657;49.630;11.018;2022-07-22T00:45:22;15.00;;;14.40;;
7231;SDS011;3657;49.630;11.018;2022-07-22T00:47:48;14.57;;;14.07;;
7231;SDS011;3657;49.630;11.018;2022-07-22T00:50:15;14.70;;;13.90;;
7231;SDS011;3657;49.630;11.018;2022-07-22T00:52:44;14.87;;;14.03;;
7231;SDS011;3657;49.630;11.018;2022-07-22T00:55:12;15.97;;;15.30;;
7231;SDS011;3657;49.630;11.018;2022-07-22T00:57:40;15.33;;;14.57;;
7231;SDS011;3657;49.630;11.018;2022-07-22T01:00:08;14.87;;;14.37;;
7231;SDS011;3657;49.630;11.018;2022-07-22T01:02:37;15.47;;;14.80;;
7231;SDS011;3657;49.630;11.018;2022-07-22T01:05:04;15.30;;;14.80;;
7231;SDS011;3657;49.630;11.018;2022-07-22T01:07:32;15.37;;;14.77;;
7231;SDS011;3657;49.630;11.018;2022-07-22T01:09:58;15.20;;;14.60;;
7231;SDS011;3657;49.630;11.018;2022-07-22T01:12:25;15.23;;;14.63;;
7231;SDS011;3657;49.630;11.018;2022-07-22T01:14:53;15.03;;;14.40;;
7231;SDS011;3657;49.630;11.018;2022-07-22T01:17:20;15.73;;;14.93;;
7231;SDS011;3657;49.630;11.018;2022-07-22T01:19:47;15.87;;;15.27;;
7231;SDS011;3657;49.630;11.018;2022-07-22T01:22:15;15.93;;;15.23;;
7231;SDS011;3657;49.630;11.018;2022-07-22T01:24:42;15.70;;;15.03;;
7231;SDS011;3657;49.630;11.018;2022-07-22T01:27:09;14.13;;;13.63;;
7231;SDS011;3657;49.630;11.018;2022-07-22T01:29:36;15.47;;;14.87;;
7231;SDS011;3657;49.630;11.018;2022-07-22T01:32:03;15.00;;;14.40;;
7231;SDS011;3657;49.630;11.018;2022-07-22T01:34:30;15.33;;;14.73;;
7231;SDS011;3657;49.630;11.018;2022-07-22T01:36:57;15.57;;;14.87;;
7231;SDS011;3657;49.630;11.018;2022-07-22T01:39:25;14.97;;;14.43;;
7231;SDS011;3657;49.630;11.018;2022-07-22T01:41:52;16.20;;;15.50;;
7231;SDS011;3657;49.630;11.018;2022-07-22T01:44:18;16.67;;;15.97;;
7231;SDS011;3657;49.630;11.018;2022-07-22T01:46:45;15.50;;;14.80;;
7231;SDS011;3657;49.630;11.018;2022-07-22T01:49:12;15.43;;;14.83;;
7231;SDS011;3657;49.630;11.018;2022-07-22T01:51:40;14.73;;;14.23;;
7231;SDS011;3657;49.630;11.018;2022-07-22T01:54:06;16.30;;;15.70;;
7231;SDS011;3657;49.630;11.018;2022-07-22T01:56:35;16.93;;;15.97;;
7231;SDS011;3657;49.630;11.018;2022-07-22T01:59:01;17.17;;;16.40;;
7231;SDS011;3657;49.630;11.018;2022-07-22T02:01:29;15.17;;;14.67;;
7231;SDS011;3657;49.630;11.018;2022-07-22T02:03:55;16.10;;;15.40;;
7231;SDS011;3657;49.630;11.018;2022-07-22T02:06:22;16.43;;;15.63;;
7231;SDS011;3657;49.630;11.018;2022-07-22T02:08:49;15.57;;;14.97;;
7231;SDS011;3657;49.630;11.018;2022-07-22T02:11:15;15.60;;;15.00;;
7231;SDS011;3657;49.630;11.018;2022-07-22T02:13:47;16.17;;;15.33;;
7231;SDS011;3657;49.630;11.018;2022-07-22T02:16:13;14.80;;;14.20;;
7231;SDS011;3657;49.630;11.018;2022-07-22T02:18:40;15.37;;;14.77;;
7231;SDS011;3657;49.630;11.018;2022-07-22T02:21:07;16.90;;;16.00;;
7231;SDS011;3657;49.630;11.018;2022-07-22T02:23:34;15.83;;;15.23;;
7231;SDS011;3657;49.630;11.018;2022-07-22T02:26:00;15.97;;;15.37;;
7231;SDS011;3657;49.630;11.018;2022-07-22T02:28:27;15.57;;;14.97;;
7231;SDS011;3657;49.630;11.018;2022-07-22T02:30:56;16.17;;;15.43;;
7231;SDS011;3657;49.630;11.018;2022-07-22T02:33:23;16.07;;;15.40;;
7231;SDS011;3657;49.630;11.018;2022-07-22T02:35:50;16.67;;;15.87;;
7231;SDS011;3657;49.630;11.018;2022-07-22T02:38:17;16.87;;;15.97;;
7231;SDS011;3657;49.630;11.018;2022-07-22T02:40:43;15.80;;;15.00;;
7231;SDS011;3657;49.630;11.018;2022-07-22T02:43:10;16.20;;;15.40;;
7231;SDS011;3657;49.630;11.018;2022-07-22T02:45:37;15.27;;;14.67;;
7231;SDS011;3657;49.630;11.018;2022-07-22T02:48:05;14.93;;;14.20;;
7231;SDS011;3657;49.630;11.018;2022-07-22T02:50:32;16.53;;;15.93;;
7231;SDS011;3657;49.630;11.018;2022-07-22T02:52:59;15.83;;;15.03;;
7231;SDS011;3657;49.630;11.018;2022-07-22T02:55:26;16.00;;;15.33;;
7231;SDS011;3657;49.630;11.018;2022-07-22T02:57:53;15.80;;;15.10;;
7231;SDS011;3657;49.630;11.018;2022-07-22T03:00:20;15.90;;;15.30;;
7231;SDS011;3657;49.630;11.018;2022-07-22T03:02:46;15.53;;;14.93;;
7231;SDS011;3657;49.630;11.018;2022-07-22T03:05:14;14.97;;;14.43;;
7231;SDS011;3657;49.630;11.018;2022-07-22T03:07:41;15.77;;;15.17;;
7231;SDS011;3657;49.630;11.018;2022-07-22T03:10:08;15.67;;;15.07;;
7231;SDS011;3657;49.630;11.018;2022-07-22T03:12:35;16.17;;;15.57;;
7231;SDS011;3657;49.630;11.018;2022-07-22T03:15:02;14.80;;;14.17;;
7231;SDS011;3657;49.630;11.018;2022-07-22T03:17:32;15.00;;;14.30;;
7231;SDS011;3657;49.630;11.018;2022-07-22T03:20:00;16.90;;;16.13;;
7231;SDS011;3657;49.630;11.018;2022-07-22T03:22:28;16.80;;;16.00;;
7231;SDS011;3657;49.630;11.018;2022-07-22T03:24:55;16.10;;;15.50;;
7231;SDS011;3657;49.630;11.018;2022-07-22T03:27:22;16.53;;;15.80;;
7231;SDS011;3657;49.630;11.018;2022-07-22T03:29:49;16.97;;;16.10;;
7231;SDS011;3657;49.630;11.018;2022-07-22T03:32:15;17.03;;;16.33;;
7231;SDS011;3657;49.630;11.018;2022-07-22T03:34:43;15.63;;;15.03;;
7231;SDS011;3657;49.630;11.018;2022-07-22T03:37:09;15.30;;;14.70;;
7231;SDS011;3657;49.630;11.018;2022-07-22T03:39:38;14.63;;;14.13;;
7231;SDS011;3657;49.630;11.018;2022-07-22T03:42:04;15.23;;;14.73;;
7231;SDS011;3657;49.630;11.018;2022-07-22T03:44:31;14.13;;;13.63;;
7231;SDS011;3657;49.630;11.018;2022-07-22T03:46:58;14.77;;;14.17;;
7231;SDS011;3657;49.630;11.018;2022-07-22T03:49:25;15.37;;;14.67;;
7231;SDS011;3657;49.630;11.018;2022-07-22T03:51:52;16.93;;;16.20;;
7231;SDS011;3657;49.630;11.018;2022-07-22T03:54:19;15.90;;;15.30;;
7231;SDS011;3657;49.630;11.018;2022-07-22T03:56:47;15.27;;;14.77;;
7231;SDS011;3657;49.630;11.018;2022-07-22T03:59:14;15.37;;;14.80;;
7231;SDS011;3657;49.630;11.018;2022-07-22T04:01:41;16.17;;;15.43;;
7231;SDS011;3657;49.630;11.018;2022-07-22T04:04:08;15.50;;;14.83;;
7231;SDS011;3657;49.630;11.018;2022-07-22T04:06:35;17.43;;;16.63;;
7231;SDS011;3657;49.630;11.018;2022-07-22T04:09:01;16.60;;;15.90;;
7231;SDS011;3657;49.630;11.018;2022-07-22T04:11:28;15.87;;;15.20;;
7231;SDS011;3657;49.630;11.018;2022-07-22T04:13:56;15.40;;;14.80;;
7231;SDS011;3657;49.630;11.018;2022-07-22T04:16:23;17.13;;;16.33;;
7231;SDS011;3657;49.630;11.018;2022-07-22T04:18:50;15.60;;;14.87;;
7231;SDS011;3657;49.630;11.018;2022-07-22T04:21:16;15.47;;;14.87;;
7231;SDS011;3657;49.630;11.018;2022-07-22T04:23:43;15.13;;;14.63;;
7231;SDS011;3657;49.630;11.018;2022-07-22T04:26:10;16.07;;;15.37;;
7231;SDS011;3657;49.630;11.018;2022-07-22T04:28:37;16.00;;;15.40;;
7231;SDS011;3657;49.630;11.018;2022-07-22T04:31:05;16.73;;;15.90;;
7231;SDS011;3657;49.630;11.018;2022-07-22T04:33:31;15.77;;;14.93;;
7231;SDS011;3657;49.630;11.018;2022-07-22T04:35:58;16.10;;;15.40;;
7231;SDS011;3657;49.630;11.018;2022-07-22T04:38:26;16.57;;;15.83;;
7231;SDS011;3657;49.630;11.018;2022-07-22T04:40:52;14.67;;;14.17;;
7231;SDS011;3657;49.630;11.018;2022-07-22T04:43:19;16.77;;;16.10;;
7231;SDS011;3657;49.630;11.018;2022-07-22T04:45:46;16.17;;;15.20;;
7231;SDS011;3657;49.630;11.018;2022-07-22T04:48:14;17.57;;;16.77;;
7231;SDS011;3657;49.630;11.018;2022-07-22T04:50:41;16.73;;;15.93;;
7231;SDS011;3657;49.630;11.018;2022-07-22T04:53:08;16.20;;;15.50;;
7231;SDS011;3657;49.630;11.018;2022-07-22T04:55:35;15.63;;;15.03;;
7231;SDS011;3657;49.630;11.018;2022-07-22T04:58:01;16.50;;;15.77;;
7231;SDS011;3657;49.630;11.018;2022-07-22T05:00:28;17.07;;;16.13;;
7231;SDS011;3657;49.630;11.018;2022-07-22T05:02:55;16.30;;;15.47;;
7231;SDS011;3657;49.630;11.018;2022-07-22T05:05:24;15.43;;;14.73;;
7231;SDS011;3657;49.630;11.018;2022-07-22T05:07:51;16.33;;;15.70;;
7231;SDS011;3657;49.630;11.018;2022-07-22T05:10:18;15.93;;;15.33;;
7231;SDS011;3657;49.630;11.018;2022-07-22T05:12:45;16.43;;;15.77;;
7231;SDS011;3657;49.630;11.018;2022-07-22T05:15:11;16.17;;;15.43;;
7231;SDS011;3657;49.630;11.018;2022-07-22T05:17:38;19.47;;;17.83;;
7231;SDS011;3657;49.630;11.018;2022-07-22T05:20:05;16.93;;;15.60;;
7231;SDS011;3657;49.630;11.018;2022-07-22T05:22:34;17.37;;;16.30;;
7231;SDS011;3657;49.630;11.018;2022-07-22T05:25:01;17.23;;;16.33;;
7231;SDS011;3657;49.630;11.018;2022-07-22T05:27:28;17.10;;;16.00;;
7231;SDS011;3657;49.630;11.018;2022-07-22T05:29:54;16.73;;;15.70;;
7231;SDS011;3657;49.630;11.018;2022-07-22T05:32:22;17.03;;;15.90;;
7231;SDS011;3657;49.630;11.018;2022-07-22T05:34:49;17.30;;;16.17;;
7231;SDS011;3657;49.630;11.018;2022-07-22T05:37:16;16.93;;;15.63;;
7231;SDS011;3657;49.630;11.018;2022-07-22T05:39:44;17.83;;;16.80;;
7231;SDS011;3657;49.630;11.018;2022-07-22T05:42:11;15.33;;;14.53;;
7231;SDS011;3657;49.630;11.018;2022-07-22T05:44:40;17.13;;;16.10;;
7231;SDS011;3657;49.630;11.018;2022-07-22T05:47:06;16.17;;;15.07;;
7231;SDS011;3657;49.630;11.018;2022-07-22T05:49:33;15.40;;;14.60;;
7231;SDS011;3657;49.630;11.018;2022-07-22T05:52:00;17.60;;;16.50;;
7231;SDS011;3657;49.630;11.018;2022-07-22T05:54:27;17.03;;;16.20;;
7231;SDS011;3657;49.630;11.018;2022-07-22T05:56:55;14.97;;;14.07;;
7231;SDS011;3657;49.630;11.018;2022-07-22T05:59:21;15.57;;;14.83;;
7231;SDS011;3657;49.630;11.018;2022-07-22T06:01:48;16.33;;;15.50;;
7231;SDS011;3657;49.630;11.018;2022-07-22T06:04:15;15.57;;;14.70;;
7231;SDS011;3657;49.630;11.018;2022-07-22T06:06:42;16.83;;;15.90;;
7231;SDS011;3657;49.630;11.018;2022-07-22T06:09:08;15.57;;;14.77;;
7231;SDS011;3657;49.630;11.018;2022-07-22T06:11:35;17.30;;;15.97;;
7231;SDS011;3657;49.630;11.018;2022-07-22T06:14:03;16.27;;;15.37;;
7231;SDS011;3657;49.630;11.018;2022-07-22T06:16:30;15.30;;;14.57;;
7231;SDS011;3657;49.630;11.018;2022-07-22T06:18:57;17.00;;;16.07;;
7231;SDS011;3657;49.630;11.018;2022-07-22T06:21:24;14.57;;;14.00;;
7231;SDS011;3657;49.630;11.018;2022-07-22T06:23:51;14.77;;;14.00;;
7231;SDS011;3657;49.630;11.018;2022-07-22T06:26:17;14.23;;;13.70;;
7231;SDS011;3657;49.630;11.018;2022-07-22T06:28:44;13.87;;;13.40;;
7231;SDS011;3657;49.630;11.018;2022-07-22T06:31:13;15.13;;;14.40;;
7231;SDS011;3657;49.630;11.018;2022-07-22T06:33:41;14.37;;;13.57;;
7231;SDS011;3657;49.630;11.018;2022-07-22T06:36:08;13.60;;;13.10;;
7231;SDS011;3657;49.630;11.018;2022-07-22T06:38:35;13.23;;;12.53;;
7231;SDS011;3657;49.630;11.018;2022-07-22T06:41:02;12.60;;;12.20;;
7231;SDS011;3657;49.630;11.018;2022-07-22T06:43:28;12.87;;;12.37;;
7231;SDS011;3657;49.630;11.018;2022-07-22T06:45:55;13.23;;;12.73;;
7231;SDS011;3657;49.630;11.018;2022-07-22T06:48:23;11.60;;;11.10;;
7231;SDS011;3657;49.630;11.018;2022-07-22T06:50:50;12.03;;;11.63;;
7231;SDS011;3657;49.630;11.018;2022-07-22T06:53:17;12.13;;;11.63;;
7231;SDS011;3657;49.630;11.018;2022-07-22T06:55:44;12.20;;;11.80;;
7231;SDS011;3657;49.630;11.018;2022-07-22T06:58:10;11.93;;;11.53;;
7231;SDS011;3657;49.630;11.018;2022-07-22T07:00:37;12.07;;;11.53;;
7231;SDS011;3657;49.630;11.018;2022-07-22T07:03:04;10.97;;;10.57;;
7231;SDS011;3657;49.630;11.018;2022-07-22T07:05:34;11.60;;;11.20;;
7231;SDS011;3657;49.630;11.018;2022-07-22T07:08:00;11.57;;;11.17;;
7231;SDS011;3657;49.630;11.018;2022-07-22T07:10:27;10.90;;;10.60;;
7231;SDS011;3657;49.630;11.018;2022-07-22T07:12:54;12.80;;;12.20;;
7231;SDS011;3657;49.630;11.018;2022-07-22T07:15:21;11.00;;;10.60;;
7231;SDS011;3657;49.630;11.018;2022-07-22T07:17:48;11.97;;;11.57;;
7231;SDS011;3657;49.630;11.018;2022-07-22T07:20:15;11.17;;;10.87;;
7231;SDS011;3657;49.630;11.018;2022-07-22T07:22:43;10.73;;;10.43;;
7231;SDS011;3657;49.630;11.018;2022-07-22T07:25:10;10.73;;;10.43;;
7231;SDS011;3657;49.630;11.018;2022-07-22T07:27:37;10.47;;;10.17;;
7231;SDS011;3657;49.630;11.018;2022-07-22T07:30:04;8.93;;;8.63;;
7231;SDS011;3657;49.630;11.018;2022-07-22T07:32:33;10.57;;;10.17;;
7231;SDS011;3657;49.630;11.018;2022-07-22T07:35:00;9.93;;;9.63;;
7231;SDS011;3657;49.630;11.018;2022-07-22T07:37:27;10.00;;;9.70;;
7231;SDS011;3657;49.630;11.018;2022-07-22T07:39:55;10.93;;;10.53;;
7231;SDS011;3657;49.630;11.018;2022-07-22T07:42:22;9.77;;;9.47;;
7231;SDS011;3657;49.630;11.018;2022-07-22T07:44:49;10.20;;;9.90;;
7231;SDS011;3657;49.630;11.018;2022-07-22T07:47:16;9.93;;;9.63;;
7231;SDS011;3657;49.630;11.018;2022-07-22T07:49:45;10.77;;;10.37;;
7231;SDS011;3657;49.630;11.018;2022-07-22T07:52:12;13.57;;;13.00;;
7231;SDS011;3657;49.630;11.018;2022-07-22T07:54:40;10.13;;;9.73;;
7231;SDS011;3657;49.630;11.018;2022-07-22T07:57:08;10.47;;;10.07;;
7231;SDS011;3657;49.630;11.018;2022-07-22T07:59:36;10.20;;;9.57;;
7231;SDS011;3657;49.630;11.018;2022-07-22T08:02:03;10.37;;;10.07;;
7231;SDS011;3657;49.630;11.018;2022-07-22T08:04:30;10.23;;;9.73;;
7231;SDS011;3657;49.630;11.018;2022-07-22T08:06:57;9.97;;;9.67;;
7231;SDS011;3657;49.630;11.018;2022-07-22T08:09:24;11.07;;;10.67;;
7231;SDS011;3657;49.630;11.018;2022-07-22T08:11:51;10.90;;;10.47;;
7231;SDS011;3657;49.630;11.018;2022-07-22T08:14:19;11.40;;;10.97;;
7231;SDS011;3657;49.630;11.018;2022-07-22T08:16:46;10.80;;;10.40;;
7231;SDS011;3657;49.630;11.018;2022-07-22T08:19:12;12.37;;;11.67;;
7231;SDS011;3657;49.630;11.018;2022-07-22T08:21:39;10.33;;;9.93;;
7231;SDS011;3657;49.630;11.018;2022-07-22T08:24:07;11.97;;;11.27;;
7231;SDS011;3657;49.630;11.018;2022-07-22T08:26:34;12.50;;;11.97;;
7231;SDS011;3657;49.630;11.018;2022-07-22T08:29:01;10.90;;;10.60;;
7231;SDS011;3657;49.630;11.018;2022-07-22T08:31:30;12.00;;;11.50;;
7231;SDS011;3657;49.630;11.018;2022-07-22T08:33:57;10.77;;;10.37;;
7231;SDS011;3657;49.630;11.018;2022-07-22T08:36:25;12.53;;;12.13;;
7231;SDS011;3657;49.630;11.018;2022-07-22T08:38:51;10.93;;;10.53;;
7231;SDS011;3657;49.630;11.018;2022-07-22T08:41:18;10.23;;;9.83;;
7231;SDS011;3657;49.630;11.018;2022-07-22T08:43:47;11.00;;;10.50;;
7231;SDS011;3657;49.630;11.018;2022-07-22T08:46:14;10.07;;;9.77;;
7231;SDS011;3657;49.630;11.018;2022-07-22T08:48:42;11.70;;;11.10;;
7231;SDS011;3657;49.630;11.018;2022-07-22T08:51:09;11.27;;;10.87;;
7231;SDS011;3657;49.630;11.018;2022-07-22T08:53:36;15.00;;;14.10;;
7231;SDS011;3657;49.630;11.018;2022-07-22T08:56:03;12.47;;;11.77;;
7231;SDS011;3657;49.630;11.018;2022-07-22T08:58:30;11.37;;;11.07;;
7231;SDS011;3657;49.630;11.018;2022-07-22T09:01:03;12.87;;;12.37;;
7231;SDS011;3657;49.630;11.018;2022-07-22T09:03:31;12.43;;;11.97;;
7231;SDS011;3657;49.630;11.018;2022-07-22T09:05:59;11.97;;;11.47;;
7231;SDS011;3657;49.630;11.018;2022-07-22T09:08:26;11.23;;;10.83;;
7231;SDS011;3657;49.630;11.018;2022-07-22T09:10:53;11.63;;;11.23;;
7231;SDS011;3657;49.630;11.018;2022-07-22T09:13:20;10.05;;;9.75;;
7231;SDS011;3657;49.630;11.018;2022-07-22T09:15:50;11.32;;;10.73;;
7231;SDS011;3657;49.630;11.018;2022-07-22T09:18:18;10.75;;;10.38;;
7231;SDS011;3657;49.630;11.018;2022-07-22T09:20:45;10.73;;;10.32;;
7231;SDS011;3657;49.630;11.018;2022-07-22T09:23:14;10.63;;;10.23;;
7231;SDS011;3657;49.630;11.018;2022-07-22T09:25:43;10.63;;;10.13;;
7231;SDS011;3657;49.630;11.018;2022-07-22T09:28:11;10.15;;;9.85;;
7231;SDS011;3657;49.630;11.018;2022-07-22T09:30:45;10.23;;;9.82;;
7231;SDS011;3657;49.630;11.018;2022-07-22T09:33:14;10.55;;;10.15;;
7231;SDS011;3657;49.630;11.018;2022-07-22T09:35:41;10.52;;;10.23;;
7231;SDS011;3657;49.630;11.018;2022-07-22T09:38:09;10.02;;;9.63;;
7231;SDS011;3657;49.630;11.018;2022-07-22T09:40:39;10.80;;;10.40;;
7231;SDS011;3657;49.630;11.018;2022-07-22T09:43:07;11.50;;;10.77;;
7231;SDS011;3657;49.630;11.018;2022-07-22T09:45:38;10.65;;;10.35;;
7231;SDS011;3657;49.630;11.018;2022-07-22T09:48:11;10.20;;;9.90;;
7231;SDS011;3657;49.630;11.018;2022-07-22T09:50:38;10.20;;;9.73;;
7231;SDS011;3657;49.630;11.018;2022-07-22T09:53:05;10.52;;;10.10;;
7231;SDS011;3657;49.630;11.018;2022-07-22T09:55:32;10.48;;;10.15;;
7231;SDS011;3657;49.630;11.018;2022-07-22T09:58:04;10.27;;;9.98;;
7231;SDS011;3657;49.630;11.018;2022-07-22T10:00:33;10.48;;;10.07;;
7231;SDS011;3657;49.630;11.018;2022-07-22T10:03:02;9.63;;;9.32;;
7231;SDS011;3657;49.630;11.018;2022-07-22T10:05:31;10.13;;;9.65;;
7231;SDS011;3657;49.630;11.018;2022-07-22T10:08:00;9.98;;;9.50;;
7231;SDS011;3657;49.630;11.018;2022-07-22T10:10:28;10.50;;;10.20;;
7231;SDS011;3657;49.630;11.018;2022-07-22T10:12:57;10.02;;;9.73;;
7231;SDS011;3657;49.630;11.018;2022-07-22T10:15:28;10.38;;;10.07;;
7231;SDS011;3657;49.630;11.018;2022-07-22T10:17:57;9.15;;;8.85;;
7231;SDS011;3657;49.630;11.018;2022-07-22T10:20:26;9.63;;;9.32;;
7231;SDS011;3657;49.630;11.018;2022-07-22T10:22:57;9.82;;;9.52;;
7231;SDS011;3657;49.630;11.018;2022-07-22T10:25:24;9.20;;;8.88;;
7231;SDS011;3657;49.630;11.018;2022-07-22T10:27:54;8.07;;;7.88;;
7231;SDS011;3657;49.630;11.018;2022-07-22T10:30:23;9.45;;;9.07;;
7231;SDS011;3657;49.630;11.018;2022-07-22T10:33:05;9.00;;;8.70;;
7231;SDS011;3657;49.630;11.018;2022-07-22T10:35:34;9.00;;;8.70;;
7231;SDS011;3657;49.630;11.018;2022-07-22T10:38:06;9.32;;;9.02;;
7231;SDS011;3657;49.630;11.018;2022-07-22T10:40:47;9.35;;;8.95;;
7231;SDS011;3657;49.630;11.018;2022-07-22T10:43:15;9.07;;;8.70;;
7231;SDS011;3657;49.630;11.018;2022-07-22T10:45:45;10.00;;;9.70;;
7231;SDS011;3657;49.630;11.018;2022-07-22T10:48:15;9.80;;;9.50;;
7231;SDS011;3657;49.630;11.018;2022-07-22T10:50:45;10.02;;;9.73;;
7231;SDS011;3657;49.630;11.018;2022-07-22T10:53:20;9.27;;;8.77;;
7231;SDS011;3657;49.630;11.018;2022-07-22T10:58:48;9.88;;;9.30;;
7231;SDS011;3657;49.630;11.018;2022-07-22T11:01:18;8.85;;;8.52;;
7231;SDS011;3657;49.630;11.018;2022-07-22T11:03:48;9.73;;;9.38;;
7231;SDS011;3657;49.630;11.018;2022-07-22T11:06:17;9.02;;;8.73;;
7231;SDS011;3657;49.630;11.018;2022-07-22T11:08:52;9.60;;;9.30;;
7231;SDS011;3657;49.630;11.018;2022-07-22T11:14:16;9.13;;;8.82;;
7231;SDS011;3657;49.630;11.018;2022-07-22T11:16:46;9.00;;;8.70;;
7231;SDS011;3657;49.630;11.018;2022-07-22T11:19:16;9.25;;;8.85;;
7231;SDS011;3657;49.630;11.018;2022-07-22T11:21:48;9.25;;;8.77;;
7231;SDS011;3657;49.630;11.018;2022-07-22T11:24:16;9.13;;;8.90;;
7231;SDS011;3657;49.630;11.018;2022-07-22T11:26:44;9.52;;;9.10;;
7231;SDS011;3657;49.630;11.018;2022-07-22T11:29:15;9.20;;;8.93;;
7231;SDS011;3657;49.630;11.018;2022-07-22T11:31:44;11.80;;;11.40;;
7231;SDS011;3657;49.630;11.018;2022-07-22T11:34:11;9.73;;;9.32;;
7231;SDS011;3657;49.630;11.018;2022-07-22T11:36:43;9.70;;;9.32;;
7231;SDS011;3657;49.630;11.018;2022-07-22T11:39:12;10.95;;;10.57;;
7231;SDS011;3657;49.630;11.018;2022-07-22T11:41:43;10.55;;;10.25;;
7231;SDS011;3657;49.630;11.018;2022-07-22T11:44:10;10.65;;;10.25;;
7231;SDS011;3657;49.630;11.018;2022-07-22T11:46:38;10.25;;;9.70;;
7231;SDS011;3657;49.630;11.018;2022-07-22T11:49:06;9.52;;;9.10;;
7231;SDS011;3657;49.630;11.018;2022-07-22T11:51:36;9.07;;;8.60;;
7231;SDS011;3657;49.630;11.018;2022-07-22T11:54:05;10.23;;;9.82;;
7231;SDS011;3657;49.630;11.018;2022-07-22T11:56:32;8.52;;;8.23;;
7231;SDS011;3657;49.630;11.018;2022-07-22T11:58:59;9.77;;;9.48;;
7231;SDS011;3657;49.630;11.018;2022-07-22T12:01:30;9.38;;;9.07;;
7231;SDS011;3657;49.630;11.018;2022-07-22T12:03:59;9.60;;;9.27;;
7231;SDS011;3657;49.630;11.018;2022-07-22T12:06:28;10.32;;;10.02;;
7231;SDS011;3657;49.630;11.018;2022-07-22T12:09:02;10.23;;;9.73;;
7231;SDS011;3657;49.630;11.018;2022-07-22T12:11:34;8.80;;;8.60;;
7231;SDS011;3657;49.630;11.018;2022-07-22T12:14:05;9.60;;;9.20;;
7231;SDS011;3657;49.630;11.018;2022-07-22T12:16:33;9.73;;;9.32;;
7231;SDS011;3657;49.630;11.018;2022-07-22T12:19:02;11.20;;;10.73;;
7231;SDS011;3657;49.630;11.018;2022-07-22T12:21:30;9.05;;;8.75;;
7231;SDS011;3657;49.630;11.018;2022-07-22T12:24:00;9.52;;;9.23;;
7231;SDS011;3657;49.630;11.018;2022-07-22T12:26:42;9.25;;;8.85;;
7231;SDS011;3657;49.630;11.018;2022-07-22T12:29:17;9.75;;;9.45;;
7231;SDS011;3657;49.630;11.018;2022-07-22T12:31:46;9.38;;;9.07;;
7231;SDS011;3657;49.630;11.018;2022-07-22T12:34:15;9.55;;;9.25;;
7231;SDS011;3657;49.630;11.018;2022-07-22T12:36:43;8.55;;;8.35;;
7231;SDS011;3657;49.630;11.018;2022-07-22T12:39:11;9.63;;;9.23;;
7231;SDS011;3657;49.630;11.018;2022-07-22T12:41:46;8.50;;;8.20;;
7231;SDS011;3657;49.630;11.018;2022-07-22T12:44:15;9.77;;;9.27;;
7231;SDS011;3657;49.630;11.018;2022-07-22T12:46:44;9.02;;;8.57;;
7231;SDS011;3657;49.630;11.018;2022-07-22T12:49:11;9.55;;;9.18;;
7231;SDS011;3657;49.630;11.018;2022-07-22T12:51:38;8.75;;;8.45;;
7231;SDS011;3657;49.630;11.018;2022-07-22T12:54:05;9.43;;;9.13;;
7231;SDS011;3657;49.630;11.018;2022-07-22T12:56:32;9.35;;;9.05;;
7231;SDS011;3657;49.630;11.018;2022-07-22T12:59:00;9.60;;;9.30;;
7231;SDS011;3657;49.630;11.018;2022-07-22T13:01:27;10.00;;;9.70;;
7231;SDS011;3657;49.630;11.018;2022-07-22T13:03:53;9.02;;;8.73;;
7231;SDS011;3657;49.630;11.018;2022-07-22T13:06:20;9.38;;;9.07;;
7231;SDS011;3657;49.630;11.018;2022-07-22T13:08:47;9.00;;;8.50;;
7231;SDS011;3657;49.630;11.018;2022-07-22T13:11:13;9.30;;;8.85;;
7231;SDS011;3657;49.630;11.018;2022-07-22T13:13:40;9.35;;;8.98;;
7231;SDS011;3657;49.630;11.018;2022-07-22T13:16:11;8.02;;;7.82;;
7231;SDS011;3657;49.630;11.018;2022-07-22T13:18:38;9.43;;;9.13;;
7231;SDS011;3657;49.630;11.018;2022-07-22T13:21:05;9.18;;;8.77;;
7231;SDS011;3657;49.630;11.018;2022-07-22T13:23:32;8.18;;;7.97;;
7231;SDS011;3657;49.630;11.018;2022-07-22T13:25:59;8.27;;;7.88;;
7231;SDS011;3657;49.630;11.018;2022-07-22T13:28:25;8.88;;;8.57;;
7231;SDS011;3657;49.630;11.018;2022-07-22T13:30:52;8.48;;;8.10;;
7231;SDS011;3657;49.630;11.018;2022-07-22T13:33:21;8.45;;;8.05;;
7231;SDS011;3657;49.630;11.018;2022-07-22T13:35:48;8.45;;;8.20;;
7231;SDS011;3657;49.630;11.018;2022-07-22T13:38:15;8.30;;;8.00;;
7231;SDS011;3657;49.630;11.018;2022-07-22T13:40:42;9.07;;;8.88;;
7231;SDS011;3657;49.630;11.018;2022-07-22T13:43:15;8.25;;;7.93;;
7231;SDS011;3657;49.630;11.018;2022-07-22T13:45:42;8.85;;;8.55;;
7231;SDS011;3657;49.630;11.018;2022-07-22T13:48:08;8.77;;;8.48;;
7231;SDS011;3657;49.630;11.018;2022-07-22T13:50:36;8.85;;;8.38;;
7231;SDS011;3657;49.630;11.018;2022-07-22T13:53:03;8.05;;;7.65;;
7231;SDS011;3657;49.630;11.018;2022-07-22T13:55:30;7.88;;;7.47;;
7231;SDS011;3657;49.630;11.018;2022-07-22T13:57:57;8.25;;;8.02;;
7231;SDS011;3657;49.630;11.018;2022-07-22T14:00:24;8.70;;;8.30;;
7231;SDS011;3657;49.630;11.018;2022-07-22T14:02:52;8.98;;;8.68;;
7231;SDS011;3657;49.630;11.018;2022-07-22T14:05:19;8.20;;;7.90;;
7231;SDS011;3657;49.630;11.018;2022-07-22T14:07:47;8.15;;;7.85;;
7231;SDS011;3657;49.630;11.018;2022-07-22T14:10:14;7.85;;;7.60;;
7231;SDS011;3657;49.630;11.018;2022-07-22T14:12:41;7.55;;;7.25;;
7231;SDS011;3657;49.630;11.018;2022-07-22T14:15:08;7.38;;;7.07;;
7231;SDS011;3657;49.630;11.018;2022-07-22T14:17:36;7.78;;;7.55;;
7231;SDS011;3657;49.630;11.018;2022-07-22T14:20:03;8.40;;;8.05;;
7231;SDS011;3657;49.630;11.018;2022-07-22T14:22:32;7.22;;;6.82;;
7231;SDS011;3657;49.630;11.018;2022-07-22T14:25:00;7.43;;;7.13;;
7231;SDS011;3657;49.630;11.018;2022-07-22T14:27:27;7.75;;;7.55;;
7231;SDS011;3657;49.630;11.018;2022-07-22T14:29:54;7.45;;;7.25;;
7231;SDS011;3657;49.630;11.018;2022-07-22T14:32:21;7.05;;;6.78;;
7231;SDS011;3657;49.630;11.018;2022-07-22T14:34:48;7.00;;;6.80;;
7231;SDS011;3657;49.630;11.018;2022-07-22T14:37:14;8.38;;;8.07;;
7231;SDS011;3657;49.630;11.018;2022-07-22T14:39:41;8.05;;;7.70;;
7231;SDS011;3657;49.630;11.018;2022-07-22T14:42:10;7.00;;;6.80;;
7231;SDS011;3657;49.630;11.018;2022-07-22T14:44:36;8.65;;;8.32;;
7231;SDS011;3657;49.630;11.018;2022-07-22T14:47:05;8.10;;;7.90;;
7231;SDS011;3657;49.630;11.018;2022-07-22T14:49:31;9.25;;;8.57;;
7231;SDS011;3657;49.630;11.018;2022-07-22T14:51:58;8.23;;;7.93;;